AIQ728 VTBD-WMKP
Flight info
| Callsign | AIQ728 |
|---|---|
| Flight time | 1h 21m |
| Altitude | 35000 |
| Route | KASNI3C KASNI M757 NULBO/N0447F370 M757 OBLEX Y10 HTY A457 VAS LUNTU1F |
| Aircraft | A320/M-SDE3FGHIRWY/LB1 |
Departure
| Time | 2026-04-27 14:50 |
|---|---|
| Airport | Don Mueang International Airport (VTBD) |
Arrival
| Time | 2026-04-27 16:11 |
|---|---|
| Airport | Penang International Airport (WMKP) |
| Time | Latitude | Longitude | Altitude | Speed | Heading |
|---|---|---|---|---|---|
| 2026-04-27 14:29 | 13.92323 | 100.60714 | 17 ft | 0 kts | 118° |
| 2026-04-27 14:42 | 13.92323 | 100.60713 | 17 ft | 2 kts | 118° |
| 2026-04-27 14:42 | 13.92331 | 100.60698 | 20 ft | 2 kts | 118° |
| 2026-04-27 14:42 | 13.92339 | 100.60683 | 20 ft | 2 kts | 118° |
| 2026-04-27 14:43 | 13.92347 | 100.60668 | 20 ft | 2 kts | 117° |
| 2026-04-27 14:43 | 13.92353 | 100.60652 | 19 ft | 2 kts | 49° |
| 2026-04-27 14:43 | 13.92340 | 100.60642 | 22 ft | 2 kts | 28° |
| 2026-04-27 14:43 | 13.92331 | 100.60637 | 19 ft | 0 kts | 28° |
| 2026-04-27 14:46 | 13.92332 | 100.60638 | 20 ft | 2 kts | 28° |
| 2026-04-27 14:46 | 13.92365 | 100.60657 | 20 ft | 9 kts | 28° |
| 2026-04-27 14:46 | 13.92440 | 100.60699 | 17 ft | 16 kts | 28° |
| 2026-04-27 14:47 | 13.92533 | 100.60751 | 17 ft | 14 kts | 28° |
| 2026-04-27 14:47 | 13.92626 | 100.60803 | 17 ft | 18 kts | 28° |
| 2026-04-27 14:47 | 13.92730 | 100.60866 | 17 ft | 16 kts | 43° |
| 2026-04-27 14:47 | 13.92718 | 100.60965 | 17 ft | 15 kts | 118° |
| 2026-04-27 14:48 | 13.92669 | 100.61058 | 19 ft | 14 kts | 118° |
| 2026-04-27 14:48 | 13.92562 | 100.61200 | 16 ft | 10 kts | 203° |
| 2026-04-27 14:48 | 13.92549 | 100.61193 | 16 ft | 0 kts | 209° |
| 2026-04-27 14:49 | 13.92506 | 100.61168 | 17 ft | 30 kts | 208° |
| 2026-04-27 14:49 | 13.92106 | 100.60944 | 18 ft | 97 kts | 208° |
| 2026-04-27 14:49 | 13.91350 | 100.60520 | 15 ft | 148 kts | 208° |
| 2026-04-27 14:50 | 13.90376 | 100.59974 | 425 ft | 159 kts | 206° |
| 2026-04-27 14:50 | 13.89406 | 100.59431 | 1091 ft | 158 kts | 206° |
| 2026-04-27 14:50 | 13.88458 | 100.58890 | 1664 ft | 159 kts | 212° |
| 2026-04-27 14:50 | 13.87789 | 100.57971 | 2200 ft | 166 kts | 244° |
| 2026-04-27 14:51 | 13.87367 | 100.56859 | 2761 ft | 167 kts | 243° |
| 2026-04-27 14:51 | 13.86943 | 100.55744 | 3259 ft | 171 kts | 244° |
| 2026-04-27 14:51 | 13.86478 | 100.54538 | 3482 ft | 192 kts | 245° |
| 2026-04-27 14:51 | 13.85951 | 100.53175 | 3688 ft | 217 kts | 245° |
| 2026-04-27 14:52 | 13.85361 | 100.51652 | 3993 ft | 241 kts | 246° |
| 2026-04-27 14:52 | 13.84718 | 100.49997 | 4352 ft | 261 kts | 247° |
| 2026-04-27 14:52 | 13.83964 | 100.48264 | 5033 ft | 268 kts | 236° |
| 2026-04-27 14:52 | 13.82747 | 100.46791 | 5765 ft | 272 kts | 226° |
| 2026-04-27 14:53 | 13.81437 | 100.45371 | 6541 ft | 275 kts | 226° |
| 2026-04-27 14:53 | 13.80100 | 100.43935 | 7254 ft | 280 kts | 226° |
| 2026-04-27 14:53 | 13.78633 | 100.42606 | 7967 ft | 284 kts | 211° |
| 2026-04-27 14:53 | 13.76798 | 100.41899 | 8667 ft | 290 kts | 188° |
| 2026-04-27 14:54 | 13.74773 | 100.42030 | 9373 ft | 296 kts | 164° |
| 2026-04-27 14:54 | 13.72819 | 100.42747 | 10042 ft | 301 kts | 160° |
| 2026-04-27 14:54 | 13.70810 | 100.43530 | 10379 ft | 319 kts | 160° |
| 2026-04-27 14:54 | 13.68660 | 100.44377 | 10594 ft | 339 kts | 159° |
| 2026-04-27 14:55 | 13.66430 | 100.45255 | 11122 ft | 346 kts | 160° |
| 2026-04-27 14:55 | 13.64160 | 100.46146 | 11750 ft | 350 kts | 159° |
| 2026-04-27 14:55 | 13.61866 | 100.47039 | 12410 ft | 353 kts | 159° |
| 2026-04-27 14:55 | 13.59556 | 100.47938 | 13043 ft | 357 kts | 159° |
| 2026-04-27 14:56 | 13.57223 | 100.48845 | 13660 ft | 360 kts | 159° |
| 2026-04-27 14:56 | 13.54894 | 100.49747 | 14185 ft | 364 kts | 159° |
| 2026-04-27 14:56 | 13.52509 | 100.50667 | 14712 ft | 367 kts | 160° |
| 2026-04-27 14:56 | 13.50105 | 100.51592 | 15229 ft | 370 kts | 160° |
| 2026-04-27 14:57 | 13.47683 | 100.52524 | 15731 ft | 374 kts | 160° |
| 2026-04-27 14:57 | 13.45238 | 100.53466 | 16266 ft | 376 kts | 160° |
| 2026-04-27 14:57 | 13.42773 | 100.54417 | 16768 ft | 380 kts | 160° |
| 2026-04-27 14:57 | 13.40294 | 100.55377 | 17266 ft | 383 kts | 160° |
| 2026-04-27 14:58 | 13.37793 | 100.56346 | 17772 ft | 386 kts | 160° |
| 2026-04-27 14:58 | 13.35271 | 100.57322 | 18243 ft | 388 kts | 160° |
| 2026-04-27 14:58 | 13.32764 | 100.58291 | 18650 ft | 391 kts | 160° |
| 2026-04-27 14:58 | 13.30203 | 100.59279 | 19062 ft | 394 kts | 160° |
| 2026-04-27 14:59 | 13.27628 | 100.60273 | 19479 ft | 397 kts | 160° |
| 2026-04-27 14:59 | 13.25027 | 100.61279 | 19865 ft | 401 kts | 160° |
| 2026-04-27 14:59 | 13.22406 | 100.62294 | 20264 ft | 404 kts | 160° |
| 2026-04-27 14:59 | 13.19767 | 100.63310 | 20667 ft | 406 kts | 160° |
| 2026-04-27 15:00 | 13.17112 | 100.64333 | 21065 ft | 409 kts | 160° |
| 2026-04-27 15:00 | 13.14470 | 100.65352 | 21457 ft | 412 kts | 160° |
| 2026-04-27 15:00 | 13.11777 | 100.66389 | 21850 ft | 414 kts | 160° |
| 2026-04-27 15:00 | 13.09027 | 100.67305 | 22222 ft | 416 kts | 168° |
| 2026-04-27 15:01 | 13.06154 | 100.67730 | 22599 ft | 418 kts | 178° |
| 2026-04-27 15:01 | 13.03237 | 100.67703 | 22972 ft | 420 kts | 183° |
| 2026-04-27 15:01 | 13.00305 | 100.67621 | 23346 ft | 422 kts | 183° |
| 2026-04-27 15:01 | 12.97357 | 100.67538 | 23670 ft | 424 kts | 182° |
| 2026-04-27 15:02 | 12.94432 | 100.67461 | 23976 ft | 427 kts | 182° |
| 2026-04-27 15:02 | 12.91453 | 100.67387 | 24287 ft | 429 kts | 182° |
| 2026-04-27 15:02 | 12.88461 | 100.67314 | 24584 ft | 431 kts | 182° |
| 2026-04-27 15:02 | 12.85454 | 100.67240 | 24890 ft | 433 kts | 182° |
| 2026-04-27 15:03 | 12.82424 | 100.67163 | 25196 ft | 435 kts | 182° |
| 2026-04-27 15:03 | 12.79389 | 100.67083 | 25517 ft | 437 kts | 182° |
| 2026-04-27 15:03 | 12.76337 | 100.67001 | 25817 ft | 439 kts | 182° |
| 2026-04-27 15:03 | 12.73272 | 100.66922 | 26129 ft | 441 kts | 182° |
| 2026-04-27 15:04 | 12.70237 | 100.66844 | 26430 ft | 443 kts | 182° |
| 2026-04-27 15:04 | 12.67149 | 100.66765 | 26730 ft | 445 kts | 182° |
| 2026-04-27 15:04 | 12.64046 | 100.66685 | 27015 ft | 447 kts | 182° |
| 2026-04-27 15:04 | 12.60924 | 100.66602 | 27298 ft | 448 kts | 183° |
| 2026-04-27 15:05 | 12.57801 | 100.66519 | 27583 ft | 450 kts | 183° |
| 2026-04-27 15:05 | 12.54657 | 100.66435 | 27858 ft | 452 kts | 182° |
| 2026-04-27 15:05 | 12.51495 | 100.66352 | 28085 ft | 455 kts | 182° |
| 2026-04-27 15:05 | 12.48316 | 100.66269 | 28366 ft | 457 kts | 182° |
| 2026-04-27 15:06 | 12.45123 | 100.66187 | 28651 ft | 459 kts | 182° |
| 2026-04-27 15:06 | 12.41967 | 100.66105 | 28927 ft | 461 kts | 182° |
| 2026-04-27 15:06 | 12.38758 | 100.66018 | 29206 ft | 462 kts | 182° |
| 2026-04-27 15:06 | 12.35529 | 100.65931 | 29472 ft | 464 kts | 182° |
| 2026-04-27 15:07 | 12.32291 | 100.65847 | 29734 ft | 466 kts | 182° |
| 2026-04-27 15:07 | 12.29035 | 100.65763 | 29979 ft | 468 kts | 182° |
| 2026-04-27 15:07 | 12.25773 | 100.65679 | 30197 ft | 469 kts | 182° |
| 2026-04-27 15:07 | 12.22495 | 100.65595 | 30422 ft | 470 kts | 182° |
| 2026-04-27 15:08 | 12.19217 | 100.65514 | 30649 ft | 471 kts | 182° |
| 2026-04-27 15:08 | 12.15967 | 100.65432 | 30860 ft | 473 kts | 182° |
| 2026-04-27 15:08 | 12.12677 | 100.65348 | 31091 ft | 473 kts | 182° |
| 2026-04-27 15:08 | 12.09378 | 100.65264 | 31379 ft | 472 kts | 182° |
| 2026-04-27 15:09 | 12.06090 | 100.65177 | 31705 ft | 471 kts | 182° |
| 2026-04-27 15:09 | 12.02820 | 100.65089 | 32038 ft | 469 kts | 182° |
| 2026-04-27 15:09 | 11.99563 | 100.65002 | 32376 ft | 467 kts | 183° |
| 2026-04-27 15:09 | 11.96316 | 100.64917 | 32722 ft | 465 kts | 183° |
| 2026-04-27 15:10 | 11.93087 | 100.64833 | 33071 ft | 464 kts | 182° |
| 2026-04-27 15:10 | 11.89911 | 100.64753 | 33424 ft | 462 kts | 182° |
| 2026-04-27 15:10 | 11.86703 | 100.64675 | 33780 ft | 460 kts | 182° |
| 2026-04-27 15:10 | 11.83504 | 100.64598 | 34085 ft | 458 kts | 182° |
| 2026-04-27 15:11 | 11.80315 | 100.64520 | 34349 ft | 457 kts | 182° |
| 2026-04-27 15:11 | 11.77136 | 100.64441 | 34596 ft | 457 kts | 182° |
| 2026-04-27 15:11 | 11.73956 | 100.64362 | 34796 ft | 457 kts | 182° |
| 2026-04-27 15:11 | 11.70778 | 100.64281 | 34851 ft | 453 kts | 182° |
| 2026-04-27 15:12 | 11.64516 | 100.64121 | 34870 ft | 449 kts | 182° |
| 2026-04-27 15:12 | 11.58316 | 100.63968 | 34862 ft | 448 kts | 182° |
| 2026-04-27 15:13 | 11.52078 | 100.63811 | 34871 ft | 448 kts | 182° |
| 2026-04-27 15:13 | 11.45850 | 100.63648 | 34870 ft | 447 kts | 182° |
| 2026-04-27 15:14 | 11.39619 | 100.63489 | 34864 ft | 447 kts | 182° |
| 2026-04-27 15:14 | 11.33389 | 100.63335 | 34871 ft | 448 kts | 182° |
| 2026-04-27 15:15 | 11.27156 | 100.63178 | 34871 ft | 448 kts | 182° |
| 2026-04-27 15:15 | 11.20970 | 100.63016 | 34861 ft | 447 kts | 182° |
| 2026-04-27 15:16 | 11.14746 | 100.62860 | 34859 ft | 447 kts | 182° |
| 2026-04-27 15:16 | 11.08518 | 100.62706 | 34858 ft | 447 kts | 182° |
| 2026-04-27 15:17 | 11.02295 | 100.62550 | 34866 ft | 447 kts | 182° |
| 2026-04-27 15:17 | 10.96071 | 100.62394 | 34866 ft | 447 kts | 182° |
| 2026-04-27 15:18 | 10.89877 | 100.62243 | 34866 ft | 447 kts | 182° |
| 2026-04-27 15:18 | 10.83654 | 100.62086 | 34867 ft | 447 kts | 182° |
| 2026-04-27 15:19 | 10.77415 | 100.61926 | 34863 ft | 447 kts | 182° |
| 2026-04-27 15:19 | 10.71229 | 100.61767 | 34869 ft | 447 kts | 182° |
| 2026-04-27 15:20 | 10.65010 | 100.61608 | 34877 ft | 447 kts | 182° |
| 2026-04-27 15:20 | 10.58794 | 100.61456 | 34877 ft | 446 kts | 182° |
| 2026-04-27 15:21 | 10.52587 | 100.61301 | 34875 ft | 446 kts | 182° |
| 2026-04-27 15:21 | 10.46380 | 100.61142 | 34872 ft | 446 kts | 182° |
| 2026-04-27 15:22 | 10.40165 | 100.60987 | 34870 ft | 446 kts | 183° |
| 2026-04-27 15:22 | 10.33951 | 100.60840 | 34877 ft | 446 kts | 182° |
| 2026-04-27 15:23 | 10.27788 | 100.60691 | 34876 ft | 445 kts | 182° |
| 2026-04-27 15:23 | 10.21578 | 100.60539 | 34876 ft | 445 kts | 182° |
| 2026-04-27 15:24 | 10.15377 | 100.60391 | 34878 ft | 445 kts | 182° |
| 2026-04-27 15:24 | 10.09222 | 100.60244 | 34877 ft | 445 kts | 182° |
| 2026-04-27 15:25 | 10.03031 | 100.60092 | 34875 ft | 445 kts | 182° |
| 2026-04-27 15:25 | 9.96839 | 100.59928 | 34874 ft | 445 kts | 182° |
| 2026-04-27 15:26 | 9.90642 | 100.59774 | 34881 ft | 445 kts | 182° |
| 2026-04-27 15:26 | 9.84491 | 100.59632 | 34881 ft | 444 kts | 182° |
| 2026-04-27 15:27 | 9.78300 | 100.59487 | 34887 ft | 444 kts | 182° |
| 2026-04-27 15:27 | 9.72110 | 100.59334 | 34887 ft | 444 kts | 182° |
| 2026-04-27 15:28 | 9.65922 | 100.59181 | 34889 ft | 444 kts | 182° |
| 2026-04-27 15:28 | 9.59736 | 100.59031 | 34881 ft | 445 kts | 182° |
| 2026-04-27 15:29 | 9.53548 | 100.58884 | 34879 ft | 445 kts | 182° |
| 2026-04-27 15:29 | 9.47393 | 100.58738 | 34887 ft | 445 kts | 182° |
| 2026-04-27 15:30 | 9.41197 | 100.58584 | 34884 ft | 445 kts | 182° |
| 2026-04-27 15:30 | 9.35000 | 100.58436 | 34886 ft | 445 kts | 182° |
| 2026-04-27 15:31 | 9.28803 | 100.58296 | 34877 ft | 445 kts | 181° |
| 2026-04-27 15:31 | 9.22648 | 100.58149 | 34886 ft | 445 kts | 181° |
| 2026-04-27 15:32 | 9.16444 | 100.57989 | 34876 ft | 445 kts | 182° |
| 2026-04-27 15:32 | 9.10247 | 100.57844 | 34876 ft | 445 kts | 182° |
| 2026-04-27 15:33 | 9.04045 | 100.57707 | 34870 ft | 445 kts | 181° |
| 2026-04-27 15:33 | 8.97840 | 100.57561 | 34878 ft | 445 kts | 181° |
| 2026-04-27 15:34 | 8.91674 | 100.57412 | 34884 ft | 445 kts | 182° |
| 2026-04-27 15:34 | 8.85468 | 100.57265 | 34871 ft | 446 kts | 181° |
| 2026-04-27 15:35 | 8.80303 | 100.57139 | 34873 ft | 446 kts | 181° |
| 2026-04-27 15:35 | 8.74087 | 100.56842 | 34868 ft | 447 kts | 185° |
| 2026-04-27 15:36 | 8.67889 | 100.56327 | 34872 ft | 447 kts | 185° |
| 2026-04-27 15:36 | 8.61679 | 100.55789 | 34877 ft | 447 kts | 185° |
| 2026-04-27 15:37 | 8.55472 | 100.55308 | 34883 ft | 447 kts | 184° |
| 2026-04-27 15:37 | 8.49276 | 100.54854 | 34884 ft | 446 kts | 184° |
| 2026-04-27 15:38 | 8.43116 | 100.54399 | 34885 ft | 446 kts | 184° |
| 2026-04-27 15:38 | 8.36914 | 100.53934 | 34883 ft | 446 kts | 184° |
| 2026-04-27 15:39 | 8.30718 | 100.53460 | 34884 ft | 446 kts | 184° |
| 2026-04-27 15:39 | 8.24522 | 100.52988 | 34876 ft | 446 kts | 184° |
| 2026-04-27 15:40 | 8.18368 | 100.52532 | 34884 ft | 446 kts | 184° |
| 2026-04-27 15:40 | 8.12167 | 100.52074 | 34884 ft | 446 kts | 184° |
| 2026-04-27 15:41 | 8.05979 | 100.51606 | 34883 ft | 446 kts | 184° |
| 2026-04-27 15:41 | 7.99781 | 100.51136 | 34876 ft | 446 kts | 184° |
| 2026-04-27 15:42 | 7.93587 | 100.50677 | 34879 ft | 446 kts | 184° |
| 2026-04-27 15:42 | 7.88012 | 100.50256 | 34884 ft | 446 kts | 184° |
| 2026-04-27 15:43 | 7.81815 | 100.49787 | 34885 ft | 446 kts | 184° |
| 2026-04-27 15:43 | 7.75621 | 100.49318 | 34882 ft | 446 kts | 184° |
| 2026-04-27 15:44 | 7.69428 | 100.48853 | 34869 ft | 446 kts | 184° |
| 2026-04-27 15:44 | 7.63272 | 100.48392 | 34877 ft | 446 kts | 184° |
| 2026-04-27 15:45 | 7.57071 | 100.47927 | 34876 ft | 446 kts | 184° |
| 2026-04-27 15:45 | 7.50882 | 100.47467 | 34879 ft | 446 kts | 184° |
| 2026-04-27 15:46 | 7.44683 | 100.47005 | 34884 ft | 446 kts | 184° |
| 2026-04-27 15:46 | 7.38493 | 100.46532 | 34881 ft | 446 kts | 184° |
| 2026-04-27 15:47 | 7.32293 | 100.46067 | 34877 ft | 446 kts | 184° |
| 2026-04-27 15:47 | 7.26137 | 100.45610 | 34886 ft | 446 kts | 184° |
| 2026-04-27 15:48 | 7.19940 | 100.45146 | 34876 ft | 446 kts | 184° |
| 2026-04-27 15:49 | 7.10688 | 100.44452 | 34613 ft | 442 kts | 184° |
| 2026-04-27 15:49 | 7.07631 | 100.44223 | 34247 ft | 438 kts | 184° |
| 2026-04-27 15:49 | 7.04594 | 100.43994 | 33689 ft | 438 kts | 184° |
| 2026-04-27 15:49 | 7.01553 | 100.43766 | 33168 ft | 435 kts | 183° |
| 2026-04-27 15:50 | 6.98543 | 100.43542 | 32650 ft | 433 kts | 183° |
| 2026-04-27 15:50 | 6.95543 | 100.43318 | 32132 ft | 430 kts | 183° |
| 2026-04-27 15:50 | 6.92563 | 100.43095 | 31624 ft | 428 kts | 182° |
| 2026-04-27 15:50 | 6.89593 | 100.42875 | 31116 ft | 426 kts | 182° |
| 2026-04-27 15:51 | 6.86638 | 100.42657 | 30619 ft | 424 kts | 182° |
| 2026-04-27 15:51 | 6.83732 | 100.42443 | 30132 ft | 423 kts | 182° |
| 2026-04-27 15:51 | 6.80796 | 100.42223 | 29597 ft | 421 kts | 182° |
| 2026-04-27 15:51 | 6.77889 | 100.42004 | 29115 ft | 417 kts | 182° |
| 2026-04-27 15:52 | 6.75010 | 100.41788 | 28661 ft | 412 kts | 182° |
| 2026-04-27 15:52 | 6.72161 | 100.41575 | 28203 ft | 408 kts | 182° |
| 2026-04-27 15:52 | 6.69339 | 100.41369 | 27797 ft | 403 kts | 181° |
| 2026-04-27 15:52 | 6.66559 | 100.41218 | 27450 ft | 397 kts | 180° |
| 2026-04-27 15:53 | 6.63809 | 100.41118 | 26998 ft | 394 kts | 179° |
| 2026-04-27 15:53 | 6.61107 | 100.41048 | 26554 ft | 391 kts | 179° |
| 2026-04-27 15:53 | 6.58390 | 100.40984 | 26094 ft | 389 kts | 179° |
| 2026-04-27 15:53 | 6.55691 | 100.40917 | 25642 ft | 387 kts | 179° |
| 2026-04-27 15:54 | 6.52996 | 100.40839 | 25171 ft | 386 kts | 179° |
| 2026-04-27 15:54 | 6.50311 | 100.40753 | 24693 ft | 386 kts | 180° |
| 2026-04-27 15:54 | 6.47624 | 100.40663 | 24206 ft | 385 kts | 180° |
| 2026-04-27 15:54 | 6.44947 | 100.40572 | 23723 ft | 385 kts | 180° |
| 2026-04-27 15:55 | 6.42263 | 100.40484 | 23192 ft | 385 kts | 180° |
| 2026-04-27 15:55 | 6.40492 | 100.40427 | 22847 ft | 384 kts | 180° |
| 2026-04-27 15:55 | 6.36929 | 100.40314 | 22190 ft | 382 kts | 180° |
| 2026-04-27 15:55 | 6.34315 | 100.40229 | 21735 ft | 380 kts | 180° |
| 2026-04-27 15:56 | 6.31676 | 100.40140 | 21284 ft | 378 kts | 180° |
| 2026-04-27 15:56 | 6.29046 | 100.40050 | 20820 ft | 377 kts | 180° |
| 2026-04-27 15:56 | 6.26428 | 100.39961 | 20357 ft | 376 kts | 180° |
| 2026-04-27 15:56 | 6.23820 | 100.39871 | 19895 ft | 375 kts | 180° |
| 2026-04-27 15:57 | 6.21211 | 100.39783 | 19435 ft | 374 kts | 180° |
| 2026-04-27 15:57 | 6.18611 | 100.39679 | 18972 ft | 374 kts | 183° |
| 2026-04-27 15:57 | 6.16030 | 100.39311 | 18557 ft | 373 kts | 187° |
| 2026-04-27 15:57 | 6.13474 | 100.38919 | 18093 ft | 372 kts | 187° |
| 2026-04-27 15:58 | 6.10931 | 100.38531 | 17764 ft | 366 kts | 186° |
| 2026-04-27 15:58 | 6.08418 | 100.38152 | 17208 ft | 362 kts | 186° |
| 2026-04-27 15:58 | 6.05972 | 100.37785 | 16658 ft | 359 kts | 186° |
| 2026-04-27 15:58 | 6.03494 | 100.37411 | 16209 ft | 358 kts | 187° |
| 2026-04-27 15:59 | 6.01035 | 100.37039 | 15777 ft | 357 kts | 187° |
| 2026-04-27 15:59 | 5.98595 | 100.36670 | 15391 ft | 354 kts | 186° |
| 2026-04-27 15:59 | 5.96164 | 100.36304 | 15036 ft | 350 kts | 186° |
| 2026-04-27 15:59 | 5.93748 | 100.35939 | 14632 ft | 349 kts | 187° |
| 2026-04-27 16:00 | 5.91353 | 100.35573 | 14280 ft | 346 kts | 187° |
| 2026-04-27 16:00 | 5.89787 | 100.35332 | 13878 ft | 342 kts | 187° |
| 2026-04-27 16:00 | 5.86696 | 100.34857 | 13201 ft | 337 kts | 187° |
| 2026-04-27 16:00 | 5.84383 | 100.34504 | 12775 ft | 336 kts | 187° |
| 2026-04-27 16:01 | 5.82076 | 100.34153 | 12363 ft | 334 kts | 187° |
| 2026-04-27 16:01 | 5.79775 | 100.33803 | 11946 ft | 333 kts | 187° |
| 2026-04-27 16:01 | 5.77502 | 100.33460 | 11636 ft | 329 kts | 187° |
| 2026-04-27 16:01 | 5.75267 | 100.33123 | 11215 ft | 328 kts | 187° |
| 2026-04-27 16:02 | 5.72980 | 100.32779 | 10784 ft | 327 kts | 187° |
| 2026-04-27 16:02 | 5.70768 | 100.32444 | 10498 ft | 322 kts | 187° |
| 2026-04-27 16:02 | 5.68598 | 100.32372 | 10237 ft | 305 kts | 173° |
| 2026-04-27 16:02 | 5.66533 | 100.32721 | 9691 ft | 299 kts | 168° |
| 2026-04-27 16:03 | 5.64497 | 100.33107 | 9107 ft | 295 kts | 168° |
| 2026-04-27 16:03 | 5.62477 | 100.33490 | 8684 ft | 296 kts | 168° |
| 2026-04-27 16:03 | 5.60463 | 100.33870 | 8292 ft | 295 kts | 168° |
| 2026-04-27 16:03 | 5.58446 | 100.34248 | 7841 ft | 296 kts | 168° |
| 2026-04-27 16:04 | 5.56440 | 100.34663 | 7397 ft | 288 kts | 161° |
| 2026-04-27 16:04 | 5.54682 | 100.35518 | 6966 ft | 276 kts | 143° |
| 2026-04-27 16:04 | 5.53330 | 100.36795 | 6545 ft | 265 kts | 131° |
| 2026-04-27 16:04 | 5.52102 | 100.38143 | 6112 ft | 258 kts | 132° |
| 2026-04-27 16:05 | 5.50903 | 100.39450 | 5689 ft | 250 kts | 132° |
| 2026-04-27 16:05 | 5.49737 | 100.40718 | 5284 ft | 244 kts | 131° |
| 2026-04-27 16:05 | 5.48579 | 100.41946 | 4868 ft | 239 kts | 138° |
| 2026-04-27 16:05 | 5.47091 | 100.42615 | 4460 ft | 238 kts | 176° |
| 2026-04-27 16:06 | 5.45527 | 100.42187 | 4064 ft | 236 kts | 213° |
| 2026-04-27 16:06 | 5.44254 | 100.41167 | 3667 ft | 233 kts | 221° |
| 2026-04-27 16:06 | 5.43097 | 100.40077 | 3269 ft | 222 kts | 224° |
| 2026-04-27 16:06 | 5.42032 | 100.39040 | 2910 ft | 209 kts | 224° |
| 2026-04-27 16:07 | 5.41024 | 100.38062 | 2553 ft | 194 kts | 224° |
| 2026-04-27 16:07 | 5.40077 | 100.37162 | 2295 ft | 180 kts | 223° |
| 2026-04-27 16:07 | 5.39214 | 100.36357 | 2078 ft | 161 kts | 223° |
| 2026-04-27 16:07 | 5.38419 | 100.35623 | 1889 ft | 151 kts | 223° |
| 2026-04-27 16:08 | 5.37652 | 100.34917 | 1707 ft | 148 kts | 222° |
| 2026-04-27 16:08 | 5.36893 | 100.34223 | 1522 ft | 147 kts | 222° |
| 2026-04-27 16:08 | 5.36140 | 100.33535 | 1349 ft | 146 kts | 221° |
| 2026-04-27 16:08 | 5.35386 | 100.32848 | 1161 ft | 147 kts | 221° |
| 2026-04-27 16:09 | 5.34626 | 100.32156 | 986 ft | 147 kts | 221° |
| 2026-04-27 16:09 | 5.33106 | 100.30773 | 659 ft | 150 kts | 222° |
| 2026-04-27 16:09 | 5.32343 | 100.30062 | 474 ft | 149 kts | 223° |
| 2026-04-27 16:10 | 5.30809 | 100.28681 | 61 ft | 147 kts | 222° |
| 2026-04-27 16:10 | 5.29623 | 100.27604 | 19 ft | 73 kts | 222° |
| 2026-04-27 16:11 | 5.29281 | 100.27292 | 19 ft | 61 kts | 222° |
| 2026-04-27 16:11 | 5.29087 | 100.27021 | 21 ft | 15 kts | 311° |
| 2026-04-27 16:12 | 5.29188 | 100.26909 | 19 ft | 7 kts | 313° |
| 2026-04-27 16:12 | 5.29220 | 100.26874 | 19 ft | 6 kts | 313° |
| 2026-04-27 16:12 | 5.29291 | 100.26792 | 18 ft | 7 kts | 311° |
| 2026-04-27 16:13 | 5.29316 | 100.26764 | 19 ft | 5 kts | 311° |
| 2026-04-27 16:13 | 5.29324 | 100.26754 | 18 ft | 0 kts | 311° |